• Join FlightAware (Why Join?)
  • Login
  • US Flag 
04:16PM EST


 

Airport Tracker/Info


-or-


 

Live Flight TrackerFlight Track Log ✈ EJA922P ✈ 18-Jun-2014 ✈ KCMH - KTPA

Flight Track Log - Related Links

Times and Time Zones

All times are in EDT time to prevent confusion due to time zone crossing. See the EJA922P flight status page for this flight to view local times or setup timezone preferences in your user account.

Time Position Orientation Groundspeed Altitude Reporting Facility
EDT Latitude Longitude Course Direction KTS MPH feet Rate Location/Type
11:53AM 40.0039 -82.9131 272° West 152 175 1,500  Level Indianapolis Center
11:53AM 40.0053 -82.9650 272° West 205 236 3,700 3,300 Climbing Indianapolis Center
11:54AM 39.9572 -83.0056 213° Southwest 279 321 7,400 3,300 Climbing Indianapolis Center
11:55AM 39.8931 -82.9592 151° Southeast 272 313 10,600 2,400 Climbing Indianapolis Center
11:57AM 39.8222 -82.9042 149° Southeast 286 329 12,400 1,680 Climbing Indianapolis Center
11:58AM 39.7347 -82.8411 151° Southeast 341 392 14,100 1,740 Climbing Indianapolis Center
11:59AM 39.6453 -82.7744 150° Southeast 362 417 16,100 1,740 Climbing Indianapolis Center
12:00PM 39.5308 -82.6875 150° Southeast 388 447 17,800 1,740 Climbing Indianapolis Center
12:01PM 39.4272 -82.6278 156° South 407 468 19,700 1,620 Climbing Indianapolis Center
12:02PM 39.3136 -82.6311 181° South 408 470 21,200 1,260 Climbing Indianapolis Center
12:03PM 39.1997 -82.6417 184° South 409 471 22,400 1,200 Climbing Indianapolis Center
12:04PM 39.0817 -82.6500 183° South 413 475 23,800 1,440 Climbing Indianapolis Center
12:05PM 38.9603 -82.6600 184° South 424 488 25,400 1,500 Climbing Indianapolis Center
12:06PM 38.8094 -82.6736 184° South 444 511 27,000 1,380 Climbing Indianapolis Center
12:07PM 38.6806 -82.6831 183° South 458 527 28,300 1,320 Climbing Indianapolis Center
12:08PM 38.5594 -82.6936 184° South 465 535 29,800 1,380 Climbing Indianapolis Center
12:09PM 38.4047 -82.7056 183° South 472 543 31,200 1,980 Climbing Indianapolis Center
12:10PM 38.2736 -82.7328 189° South 474 545 33,900 1,800 Climbing Indianapolis Center
12:11PM 38.1517 -82.7889 200° South 467 537 35,000 960 Climbing Indianapolis Center
12:12PM 38.0244 -82.8544 202° Southwest 484 557 36,000 480 Climbing Indianapolis Center
12:13PM 37.8908 -82.9217 202° Southwest 508 585 36,000  Level Indianapolis Center
12:14PM 37.7303 -83.0039 202° Southwest 528 608 36,000 480 Level Indianapolis Center
12:15PM 37.5936 -83.0714 201° Southwest 528 608 37,000 1,440 Climbing Indianapolis Center
12:16PM 37.4625 -83.1367 202° Southwest 513 590 39,000 1,740 Climbing Indianapolis Center
12:17PM 37.3350 -83.2014 202° Southwest 502 578 40,600 1,500 Climbing Indianapolis Center
12:18PM 37.2083 -83.2628 201° Southwest 495 570 42,100 1,140 Climbing Indianapolis Center
12:19PM 37.0658 -83.3331 201° Southwest 480 552 43,000 420 Climbing Indianapolis Center
12:20PM 36.9458 -83.3928 202° Southwest 473 544 43,000  Level Indianapolis Center
12:21PM 36.8242 -83.4519 201° Southwest 472 543 43,000  Level Indianapolis Center
12:22PM 36.6981 -83.5128 201° Southwest 480 552 43,000  Level Indianapolis Center
12:23PM 36.5706 -83.5744 201° Southwest 488 562 43,000  Level Indianapolis Center
12:24PM 36.4358 -83.6386 201° Southwest 489 563 43,000  Level Indianapolis Center
12:25PM 36.3103 -83.7000 202° Southwest 489 563 43,000  Level Indianapolis Center
12:26PM 36.1844 -83.7600 201° Southwest 487 560 43,000  Level Indianapolis Center
12:27PM 36.0769 -83.8128 202° Southwest 484 557 43,000  Level Atlanta Center
12:28PM 35.9558 -83.8719 202° Southwest 484 557 43,000  Level Atlanta Center
12:29PM 35.8392 -83.9414 206° Southwest 478 550 43,000  Level Atlanta Center
12:30PM 35.7308 -84.0261 212° Southwest 467 537 43,000  Level Atlanta Center
12:31PM 35.6203 -84.1078 211° Southwest 467 537 43,000  Level Atlanta Center
12:32PM 35.5117 -84.1892 211° Southwest 467 537 43,000  Level Atlanta Center
12:33PM 35.4031 -84.2731 212° Southwest 467 537 43,000  Level Atlanta Center
12:34PM 35.2922 -84.3569 212° Southwest 472 543 43,000  Level Atlanta Center
12:35PM 35.1794 -84.4428 212° Southwest 478 550 43,000  Level Atlanta Center
12:36PM 35.0642 -84.5336 213° Southwest 483 556 43,000  Level Atlanta Center
12:37PM 34.9511 -84.6192 212° Southwest 483 556 43,000  Level Atlanta Center
12:38PM 34.8358 -84.7069 212° Southwest 488 562 43,000  Level Atlanta Center
12:39PM 34.7186 -84.7944 212° Southwest 493 567 43,000  Level Atlanta Center
12:40PM 34.5872 -84.7881 178° South 458 527 43,000  Level Atlanta Center
12:41PM 34.4539 -84.7367 162° South 467 537 43,000  Level Atlanta Center
12:42PM 34.3186 -84.6878 163° South 486 559 43,000  Level Atlanta Center
12:43PM 34.1831 -84.6389 163° South 492 566 43,000  Level Atlanta Center
12:44PM 34.0478 -84.5903 163° South 497 572 43,000  Level Atlanta Center
12:45PM 33.9142 -84.5444 164° South 502 578 43,000  Level Atlanta Center
12:46PM 33.7914 -84.4961 162° South 502 578 43,000  Level Atlanta Center
12:47PM 33.6619 -84.4506 164° South 497 572 43,000  Level Atlanta Center
12:48PM 33.5181 -84.4350 175° South 497 572 43,000  Level Atlanta Center
12:49PM 33.3803 -84.4319 179° South 502 578 43,000  Level Atlanta Center
12:50PM 33.2406 -84.4286 179° South 497 572 43,000  Level Atlanta Center
12:51PM 33.1006 -84.4231 178° South 497 572 43,000  Level Atlanta Center
12:52PM 32.9628 -84.4225 180° South 497 572 43,000  Level Atlanta Center
12:53PM 32.8231 -84.4219 180° South 497 572 43,000  Level Atlanta Center
12:54PM 32.6853 -84.4189 179° South 497 572 43,000  Level Atlanta Center
12:55PM 32.5433 -84.4158 179° South 497 572 43,000  Level Atlanta Center
12:56PM 32.4036 -84.4128 179° South 497 572 43,000 -480 Level Atlanta Center
12:57PM 32.2658 -84.4097 179° South 497 572 42,100 -840 Descending Atlanta Center
12:58PM 32.1258 -84.4067 179° South 497 572 41,400 -600 Descending Atlanta Center
12:59PM 31.9883 -84.4014 178° South 496 571 41,000 -240 Descending Jacksonville Center
01:00PM 31.8486 -84.4017 180° South 496 571 41,000  Level Jacksonville Center
01:01PM 31.7108 -84.3969 178° South 496 571 41,000  Level Jacksonville Center
01:02PM 31.5667 -84.3947 179° South 496 571 41,000  Level Jacksonville Center
01:03PM 31.4228 -84.3897 178° South 511 588 41,000  Level Jacksonville Center
01:04PM 31.2792 -84.3608 170° South 516 594 41,000  Level Jacksonville Center
01:05PM 31.1439 -84.3150 164° South 516 594 41,000  Level Jacksonville Center
01:06PM 31.0169 -84.2719 164° South 516 594 41,000  Level Jacksonville Center
01:07PM 30.8817 -84.2286 165° South 516 594 41,000  Level Jacksonville Center
01:08PM 30.7444 -84.1858 165° South 510 587 41,000  Level Jacksonville Center
01:09PM 30.6092 -84.1406 164° South 510 587 41,000  Level Jacksonville Center
01:10PM 30.4633 -84.0953 165° South 501 577 41,000  Level Jacksonville Center
01:11PM 30.3258 -84.0525 165° South 501 577 41,000  Level Jacksonville Center
01:12PM 30.1906 -84.0125 166° South 501 577 41,000  Level Jacksonville Center
01:13PM 30.0553 -83.9700 165° South 506 582 41,000 -840 Level Jacksonville Center
01:14PM 29.9158 -83.9253 164° South 511 588 39,400 -2,100 Descending Jacksonville Center
01:15PM 29.7722 -83.8689 161° South 526 605 36,900 -2,460 Descending Jacksonville Center
01:16PM 29.6433 -83.7864 151° Southeast 531 611 34,500 -2,400 Descending Jacksonville Center
01:17PM 29.5167 -83.7039 150° Southeast 524 603 32,200 -2,400 Descending Jacksonville Center
01:18PM 29.3875 -83.6172 150° Southeast 529 609 29,800 -2,400 Descending Jacksonville Center
01:19PM 29.2586 -83.5378 152° Southeast 529 609 27,400 -1,860 Descending Jacksonville Center
01:20PM 29.1483 -83.4656 150° Southeast 523 602 26,100 -1,440 Descending Jacksonville Center
01:21PM 29.0275 -83.3889 151° Southeast 513 590 24,600 -1,800 Descending Jacksonville Center
01:22PM 28.9108 -83.3172 152° Southeast 492 566 22,600 -2,100 Descending Jacksonville Center
01:23PM 28.7983 -83.2456 151° Southeast 477 549 20,400 -2,040 Descending Jacksonville Center
01:25PM 28.5833 -83.1167 152° Southeast 347 399 16,300 -1,860 Descending Tampa TRACON
01:26PM 28.5000 -83.0500 145° Southeast 316 364 14,700 -1,560 Descending Tampa TRACON
01:27PM 28.4333 -83.0167 156° South 294 338 13,100 -1,500 Descending Tampa TRACON
01:28PM 28.3500 -82.9667 152° Southeast 299 344 11,600 -1,500 Descending Tampa TRACON
01:29PM 28.3097 -82.9325 143° Southeast 300 345 10,700 -1,500 Descending Miami Center
01:30PM 28.2422 -82.8908 151° Southeast 281 323 9,200 -1,560 Descending Miami Center
01:31PM 28.1667 -82.8167 139° Southeast 261 300 7,000 -1,200 Descending Tampa TRACON
01:32PM 28.1333 -82.7667 127° Southeast 252 290 6,500 -1,140 Descending Tampa TRACON
01:33PM 28.0833 -82.7000 130° Southeast 253 291 5,000 -840 Descending Tampa TRACON
01:34PM 28.0333 -82.6500 139° Southeast 260 299 5,000 -300 Level Tampa TRACON
01:35PM 27.9500 -82.6167 161° South 256 295 4,400 -960 Descending Tampa TRACON
01:36PM 27.8833 -82.6167 180° South 265 305 3,000 -780 Descending Tampa TRACON
01:37PM 27.8667 -82.5667 111° Southeast 188 216 3,000 -780 Level Tampa TRACON
01:38PM 27.8833 -82.5500 41° Northeast 158 182 1,600 -1,080 Descending Tampa TRACON
01:39PM 27.9333 -82.5500 360° North 133 153 900 -660 Descending Tampa TRACON